Tropical Cyclones
[Index]
Main Index Home Page Stock Weather Photos Extreme Storms Discussion Storm News and Storm Chasing Reports Tropical Cyclones / Hurricanes / Typhoons Weather Data and Links Wild Fires / Bushfires Weather Observation Techniques Weather Picture Catalogue Tornado Pictures and Reports Stock Video Footage and DVDs for sale
Season 2008-2009 Tropical Cyclone CINDA Track Map
Season 2008-2009 Summaries: [BoM-AU] [JTWC-AU] [JTWC-SIO] [JTWC-SPAC] [JTWC-SH]
<<- Previous TC | JTWC 2008-2009 Season | Next TC ->>

click for intensity scale information  Lat/long Grid: Show Hide

 Date Labels: Show Hide

Joint Typhoon Warning Centre Cyclone Data

Name: CINDA

13 Dec 2008 12:00 UTC to 21 Dec 2008 00:00 UTC

    date/time    lat    long     hPa   cat  kts
2008-12-13 12   10.4    76.5    1007         20          
2008-12-13 18   10.3    75.7    1007         20          
2008-12-14 00   10.2    75.0    1007         20          
2008-12-14 06   10.1    74.2    1007         20          
2008-12-14 12   10.0    73.2    1007         20          
2008-12-14 18    9.9    72.2    1007         20          
2008-12-15 00    9.6    71.0    1004         25          
2008-12-15 06    9.2    70.0    1004         25          
2008-12-15 09    9.1    69.6    1004         25          
2008-12-15 12    9.1    69.3    1004         25          
2008-12-15 18    9.2    68.9    1004         25          
2008-12-16 00    9.3    68.6    1004         25          
2008-12-16 06    9.5    68.2    1004         25          
2008-12-16 12    9.7    67.8    1004         25          
2008-12-16 18   10.0    67.4    1000         30          
2008-12-17 00   10.2    67.1     996         35          
2008-12-17 06   10.4    66.9     996         35          
2008-12-17 12   10.7    67.0     993    1    40          
2008-12-17 18   11.0    67.0     989    1    45          
2008-12-18 00   11.7    67.0     985    1    50          
2008-12-18 03   12.1    67.0     985    1    50          
2008-12-18 06   12.4    66.9     982    2    55          
2008-12-18 06   12.4    66.9     982    2    55          
2008-12-18 12   12.7    66.7     982    2    55          
2008-12-18 12   12.7    66.7     982    2    55          
2008-12-18 18   13.0    66.4     985    1    50          
2008-12-19 00   13.4    65.8     985    1    50          
2008-12-19 06   13.6    65.3     989    1    45          
2008-12-19 12   13.7    64.9     993    1    40          
2008-12-19 18   14.0    64.2     993    1    40          
2008-12-20 00   14.0    63.5     993    1    40          
2008-12-20 06   13.8    62.9     996         35          
2008-12-20 12   14.1    62.6     996         35          
2008-12-20 18   14.8    62.3    1000         30          
2008-12-21 00   15.4    61.4    1004         25          
Winds are 1-min average.

Tropical cyclone tracks developed by Michael Bath using data from the Joint Typhoon Warning Centre Best Tracks and Google Maps.


[Australian Severe Weather index] [Copyright Notice] [Email Contacts] [Search This Site] [Privacy Policy]
Document: tropical_cyclone_cinda.htm Updated: 28 June 2017